Forside
METAR-TAF:

METAR-TAF

Lufthavne :

Lawrence Municipal Airport

Lawrence, Kansas, USA

Breddekreds: 39-00-30N, længdekreds: 095-12-42W, højde: 253 m

Aktuelle vejr

Denne rapport blev lavet for 30 minutter siden, kl. 06:52 UTC
Vind 3 kt fra sydsydøst
Temperatur 8°C
Fugtighed 76%
Tryk 1020 hPa
Sigt: 16.1 km
skyfri

METAR: KLWC 220652Z AUTO 16003KT 10SM CLR 08/04 A3011 RMK AO2 SLP195 T00830044

Tid: 02:22 (07:22 UTC)


TAF: fraværende

Vejrobservationer og prognoser fra mere end 4000 lufthavne (METAR og TAF).

De gule og røde prikker repræsenterer de meteorologiske stationer.

Flyt musen over at se navnet på stationen.

Så klik over at se vejr observationer og prognoser.

At skifte det kort: Klik på de grønne knapper med et sort kors for at zoome ind; på den grønne knap med en bindestreg for at zoome ud; eller på de grønne pile for tilstødende kort.


METAR-TAF: